sensor_id;sensor_type;location;lat;lon;timestamp;P1;durP1;ratioP1;P2;durP2;ratioP2
33780;SDS011;20097;50.832;19.100;2023-02-11T00:02:41;71.60;;;33.53;;
33780;SDS011;20097;50.832;19.100;2023-02-11T00:07:50;69.22;;;32.13;;
33780;SDS011;20097;50.832;19.100;2023-02-11T00:12:55;64.05;;;30.58;;
33780;SDS011;20097;50.832;19.100;2023-02-11T00:17:59;69.90;;;31.90;;
33780;SDS011;20097;50.832;19.100;2023-02-11T00:23:05;64.25;;;31.77;;
33780;SDS011;20097;50.832;19.100;2023-02-11T00:28:10;62.78;;;29.55;;
33780;SDS011;20097;50.832;19.100;2023-02-11T00:33:15;66.25;;;30.85;;
33780;SDS011;20097;50.832;19.100;2023-02-11T00:38:20;65.80;;;32.90;;
33780;SDS011;20097;50.832;19.100;2023-02-11T00:43:25;57.25;;;30.38;;
33780;SDS011;20097;50.832;19.100;2023-02-11T00:48:30;68.80;;;30.52;;
33780;SDS011;20097;50.832;19.100;2023-02-11T00:53:36;61.40;;;29.40;;
33780;SDS011;20097;50.832;19.100;2023-02-11T00:58:41;61.17;;;29.63;;
33780;SDS011;20097;50.832;19.100;2023-02-11T01:03:46;59.42;;;28.52;;
33780;SDS011;20097;50.832;19.100;2023-02-11T01:08:51;62.13;;;30.23;;
33780;SDS011;20097;50.832;19.100;2023-02-11T01:13:56;58.55;;;28.20;;
33780;SDS011;20097;50.832;19.100;2023-02-11T01:19:02;57.65;;;27.42;;
33780;SDS011;20097;50.832;19.100;2023-02-11T01:24:07;58.55;;;28.27;;
33780;SDS011;20097;50.832;19.100;2023-02-11T01:29:12;61.00;;;28.73;;
33780;SDS011;20097;50.832;19.100;2023-02-11T01:34:16;59.00;;;28.67;;
33780;SDS011;20097;50.832;19.100;2023-02-11T01:39:22;57.67;;;28.58;;
33780;SDS011;20097;50.832;19.100;2023-02-11T01:44:27;56.33;;;28.00;;
33780;SDS011;20097;50.832;19.100;2023-02-11T01:49:34;56.10;;;27.88;;
33780;SDS011;20097;50.832;19.100;2023-02-11T01:54:44;60.40;;;28.85;;
33780;SDS011;20097;50.832;19.100;2023-02-11T02:00:12;65.18;;;28.42;;
33780;SDS011;20097;50.832;19.100;2023-02-11T02:05:23;54.65;;;28.15;;
33780;SDS011;20097;50.832;19.100;2023-02-11T02:10:36;56.80;;;28.27;;
33780;SDS011;20097;50.832;19.100;2023-02-11T02:15:46;57.75;;;27.52;;
33780;SDS011;20097;50.832;19.100;2023-02-11T02:37:46;59.55;;;29.00;;
33780;SDS011;20097;50.832;19.100;2023-02-11T02:42:57;61.55;;;29.85;;
33780;SDS011;20097;50.832;19.100;2023-02-11T02:48:05;59.63;;;29.80;;
33780;SDS011;20097;50.832;19.100;2023-02-11T02:53:12;60.15;;;30.35;;
33780;SDS011;20097;50.832;19.100;2023-02-11T02:58:33;60.65;;;28.80;;
33780;SDS011;20097;50.832;19.100;2023-02-11T03:04:00;64.20;;;30.55;;
33780;SDS011;20097;50.832;19.100;2023-02-11T03:09:13;71.15;;;33.13;;
33780;SDS011;20097;50.832;19.100;2023-02-11T03:14:24;59.28;;;29.88;;
33780;SDS011;20097;50.832;19.100;2023-02-11T03:19:33;65.07;;;30.13;;
33780;SDS011;20097;50.832;19.100;2023-02-11T03:24:40;59.25;;;30.80;;
33780;SDS011;20097;50.832;19.100;2023-02-11T03:29:48;56.60;;;29.45;;
33780;SDS011;20097;50.832;19.100;2023-02-11T03:35:00;68.60;;;30.13;;
33780;SDS011;20097;50.832;19.100;2023-02-11T03:40:12;60.40;;;29.25;;
33780;SDS011;20097;50.832;19.100;2023-02-11T03:45:21;64.22;;;30.45;;
33780;SDS011;20097;50.832;19.100;2023-02-11T03:50:29;62.35;;;28.42;;
33780;SDS011;20097;50.832;19.100;2023-02-11T03:55:37;56.40;;;28.88;;
33780;SDS011;20097;50.832;19.100;2023-02-11T04:00:44;56.97;;;26.48;;
33780;SDS011;20097;50.832;19.100;2023-02-11T04:05:50;58.30;;;28.27;;
33780;SDS011;20097;50.832;19.100;2023-02-11T04:10:55;59.40;;;27.17;;
33780;SDS011;20097;50.832;19.100;2023-02-11T04:15:59;47.05;;;24.23;;
33780;SDS011;20097;50.832;19.100;2023-02-11T04:21:07;55.45;;;27.20;;
33780;SDS011;20097;50.832;19.100;2023-02-11T04:26:12;57.72;;;28.38;;
33780;SDS011;20097;50.832;19.100;2023-02-11T04:31:16;58.47;;;28.10;;
33780;SDS011;20097;50.832;19.100;2023-02-11T04:41:27;58.55;;;27.48;;
33780;SDS011;20097;50.832;19.100;2023-02-11T04:46:31;52.63;;;28.58;;
33780;SDS011;20097;50.832;19.100;2023-02-11T04:51:37;60.50;;;28.95;;
33780;SDS011;20097;50.832;19.100;2023-02-11T04:56:42;50.17;;;26.85;;
33780;SDS011;20097;50.832;19.100;2023-02-11T05:01:47;53.78;;;27.67;;
33780;SDS011;20097;50.832;19.100;2023-02-11T05:06:53;50.03;;;25.50;;
33780;SDS011;20097;50.832;19.100;2023-02-11T05:12:00;58.65;;;27.13;;
33780;SDS011;20097;50.832;19.100;2023-02-11T05:17:04;60.72;;;25.98;;
33780;SDS011;20097;50.832;19.100;2023-02-11T05:27:14;53.22;;;26.77;;
33780;SDS011;20097;50.832;19.100;2023-02-11T05:32:18;55.05;;;26.02;;
33780;SDS011;20097;50.832;19.100;2023-02-11T05:37:24;46.30;;;26.00;;
33780;SDS011;20097;50.832;19.100;2023-02-11T05:42:29;51.45;;;27.95;;
33780;SDS011;20097;50.832;19.100;2023-02-11T05:47:33;66.22;;;27.75;;
33780;SDS011;20097;50.832;19.100;2023-02-11T05:52:39;53.30;;;27.92;;
33780;SDS011;20097;50.832;19.100;2023-02-11T05:57:43;51.33;;;26.60;;
33780;SDS011;20097;50.832;19.100;2023-02-11T06:02:47;50.55;;;26.63;;
33780;SDS011;20097;50.832;19.100;2023-02-11T06:12:57;55.67;;;27.83;;
33780;SDS011;20097;50.832;19.100;2023-02-11T06:18:02;55.10;;;29.52;;
33780;SDS011;20097;50.832;19.100;2023-02-11T06:23:08;61.88;;;29.40;;
33780;SDS011;20097;50.832;19.100;2023-02-11T06:28:12;66.00;;;31.55;;
33780;SDS011;20097;50.832;19.100;2023-02-11T06:33:17;65.93;;;30.73;;
33780;SDS011;20097;50.832;19.100;2023-02-11T06:38:22;60.70;;;30.67;;
33780;SDS011;20097;50.832;19.100;2023-02-11T06:43:27;68.60;;;29.98;;
33780;SDS011;20097;50.832;19.100;2023-02-11T06:48:31;61.50;;;30.25;;
33780;SDS011;20097;50.832;19.100;2023-02-11T06:53:37;58.42;;;30.85;;
33780;SDS011;20097;50.832;19.100;2023-02-11T06:58:45;62.95;;;30.20;;
33780;SDS011;20097;50.832;19.100;2023-02-11T07:03:50;50.08;;;27.63;;
33780;SDS011;20097;50.832;19.100;2023-02-11T07:08:56;54.20;;;27.80;;
33780;SDS011;20097;50.832;19.100;2023-02-11T07:14:01;53.58;;;27.52;;
33780;SDS011;20097;50.832;19.100;2023-02-11T07:19:09;47.67;;;27.23;;
33780;SDS011;20097;50.832;19.100;2023-02-11T07:24:15;52.38;;;27.42;;
33780;SDS011;20097;50.832;19.100;2023-02-11T07:29:19;52.65;;;28.52;;
33780;SDS011;20097;50.832;19.100;2023-02-11T07:34:23;51.88;;;27.45;;
33780;SDS011;20097;50.832;19.100;2023-02-11T07:39:30;51.70;;;26.98;;
33780;SDS011;20097;50.832;19.100;2023-02-11T07:44:35;52.55;;;27.20;;
33780;SDS011;20097;50.832;19.100;2023-02-11T07:54:46;55.65;;;26.75;;
33780;SDS011;20097;50.832;19.100;2023-02-11T07:59:51;52.78;;;25.52;;
33780;SDS011;20097;50.832;19.100;2023-02-11T08:10:02;50.17;;;26.00;;
33780;SDS011;20097;50.832;19.100;2023-02-11T08:15:07;53.30;;;25.73;;
33780;SDS011;20097;50.832;19.100;2023-02-11T08:20:12;52.78;;;27.98;;
33780;SDS011;20097;50.832;19.100;2023-02-11T08:30:21;53.70;;;26.95;;
33780;SDS011;20097;50.832;19.100;2023-02-11T08:35:28;48.47;;;24.60;;
33780;SDS011;20097;50.832;19.100;2023-02-11T08:40:35;46.47;;;25.48;;
33780;SDS011;20097;50.832;19.100;2023-02-11T08:45:39;48.30;;;25.17;;
33780;SDS011;20097;50.832;19.100;2023-02-11T08:50:44;46.20;;;24.50;;
33780;SDS011;20097;50.832;19.100;2023-02-11T08:55:50;48.10;;;25.63;;
33780;SDS011;20097;50.832;19.100;2023-02-11T09:00:56;51.78;;;25.30;;
33780;SDS011;20097;50.832;19.100;2023-02-11T09:06:03;48.45;;;24.00;;
33780;SDS011;20097;50.832;19.100;2023-02-11T09:11:10;48.65;;;25.10;;
33780;SDS011;20097;50.832;19.100;2023-02-11T09:16:16;43.38;;;23.63;;
33780;SDS011;20097;50.832;19.100;2023-02-11T09:21:22;46.33;;;21.98;;
33780;SDS011;20097;50.832;19.100;2023-02-11T09:26:28;44.38;;;22.80;;
33780;SDS011;20097;50.832;19.100;2023-02-11T09:31:35;40.25;;;21.73;;
33780;SDS011;20097;50.832;19.100;2023-02-11T09:36:40;51.97;;;24.92;;
33780;SDS011;20097;50.832;19.100;2023-02-11T09:41:56;62.65;;;24.83;;
33780;SDS011;20097;50.832;19.100;2023-02-11T09:47:34;42.53;;;22.48;;
33780;SDS011;20097;50.832;19.100;2023-02-11T09:52:49;43.80;;;23.10;;
33780;SDS011;20097;50.832;19.100;2023-02-11T09:58:01;49.50;;;24.52;;
33780;SDS011;20097;50.832;19.100;2023-02-11T10:03:19;45.50;;;25.30;;
33780;SDS011;20097;50.832;19.100;2023-02-11T10:08:48;54.03;;;26.42;;
33780;SDS011;20097;50.832;19.100;2023-02-11T10:14:08;46.15;;;24.85;;
33780;SDS011;20097;50.832;19.100;2023-02-11T10:19:34;39.60;;;23.25;;
33780;SDS011;20097;50.832;19.100;2023-02-11T10:24:54;39.17;;;22.83;;
33780;SDS011;20097;50.832;19.100;2023-02-11T10:30:05;43.40;;;24.08;;
33780;SDS011;20097;50.832;19.100;2023-02-11T10:35:15;50.17;;;26.75;;
33780;SDS011;20097;50.832;19.100;2023-02-11T10:40:24;50.20;;;25.95;;
33780;SDS011;20097;50.832;19.100;2023-02-11T10:45:33;43.60;;;24.52;;
33780;SDS011;20097;50.832;19.100;2023-02-11T10:50:41;48.38;;;26.13;;
33780;SDS011;20097;50.832;19.100;2023-02-11T10:55:48;48.45;;;25.38;;
33780;SDS011;20097;50.832;19.100;2023-02-11T11:00:57;44.53;;;23.73;;
33780;SDS011;20097;50.832;19.100;2023-02-11T11:06:03;51.90;;;26.40;;
33780;SDS011;20097;50.832;19.100;2023-02-11T11:11:11;53.03;;;25.02;;
33780;SDS011;20097;50.832;19.100;2023-02-11T11:16:21;46.38;;;24.65;;
33780;SDS011;20097;50.832;19.100;2023-02-11T11:21:29;47.33;;;25.42;;
33780;SDS011;20097;50.832;19.100;2023-02-11T11:26:38;47.63;;;24.20;;
33780;SDS011;20097;50.832;19.100;2023-02-11T11:31:48;50.60;;;26.77;;
33780;SDS011;20097;50.832;19.100;2023-02-11T11:36:56;46.22;;;26.05;;
33780;SDS011;20097;50.832;19.100;2023-02-11T11:42:02;51.53;;;26.77;;
33780;SDS011;20097;50.832;19.100;2023-02-11T11:47:26;47.47;;;26.02;;
33780;SDS011;20097;50.832;19.100;2023-02-11T11:52:39;54.45;;;28.60;;
33780;SDS011;20097;50.832;19.100;2023-02-11T11:57:49;55.97;;;27.55;;
33780;SDS011;20097;50.832;19.100;2023-02-11T12:03:02;64.03;;;29.63;;
33780;SDS011;20097;50.832;19.100;2023-02-11T12:08:41;50.78;;;28.27;;
33780;SDS011;20097;50.832;19.100;2023-02-11T12:14:02;55.47;;;30.42;;
33780;SDS011;20097;50.832;19.100;2023-02-11T12:25:08;55.55;;;29.25;;
33780;SDS011;20097;50.832;19.100;2023-02-11T12:30:35;53.28;;;28.60;;
33780;SDS011;20097;50.832;19.100;2023-02-11T12:36:01;49.65;;;28.67;;
33780;SDS011;20097;50.832;19.100;2023-02-11T12:41:19;51.50;;;29.40;;
33780;SDS011;20097;50.832;19.100;2023-02-11T12:46:53;55.70;;;29.33;;
33780;SDS011;20097;50.832;19.100;2023-02-11T12:52:21;59.65;;;29.45;;
33780;SDS011;20097;50.832;19.100;2023-02-11T12:57:40;57.42;;;28.58;;
33780;SDS011;20097;50.832;19.100;2023-02-11T13:02:46;60.65;;;30.27;;
33780;SDS011;20097;50.832;19.100;2023-02-11T13:08:00;56.70;;;29.92;;
33780;SDS011;20097;50.832;19.100;2023-02-11T13:13:12;60.15;;;28.25;;
33780;SDS011;20097;50.832;19.100;2023-02-11T13:18:29;55.17;;;30.33;;
33780;SDS011;20097;50.832;19.100;2023-02-11T13:23:53;60.17;;;29.67;;
33780;SDS011;20097;50.832;19.100;2023-02-11T13:29:10;50.22;;;26.50;;
33780;SDS011;20097;50.832;19.100;2023-02-11T13:40:02;52.42;;;27.52;;
33780;SDS011;20097;50.832;19.100;2023-02-11T13:45:26;49.45;;;26.27;;
33780;SDS011;20097;50.832;19.100;2023-02-11T13:50:36;47.88;;;27.35;;
33780;SDS011;20097;50.832;19.100;2023-02-11T13:55:50;62.08;;;28.13;;
33780;SDS011;20097;50.832;19.100;2023-02-11T14:01:07;53.13;;;28.40;;
33780;SDS011;20097;50.832;19.100;2023-02-11T14:11:48;58.78;;;28.90;;
33780;SDS011;20097;50.832;19.100;2023-02-11T14:22:39;53.45;;;28.75;;
33780;SDS011;20097;50.832;19.100;2023-02-11T14:27:52;54.08;;;28.65;;
33780;SDS011;20097;50.832;19.100;2023-02-11T14:33:14;53.38;;;28.70;;
33780;SDS011;20097;50.832;19.100;2023-02-11T14:38:45;50.28;;;28.02;;
33780;SDS011;20097;50.832;19.100;2023-02-11T14:44:05;51.15;;;27.52;;
33780;SDS011;20097;50.832;19.100;2023-02-11T14:49:18;48.00;;;26.95;;
33780;SDS011;20097;50.832;19.100;2023-02-11T14:54:28;45.90;;;24.83;;
33780;SDS011;20097;50.832;19.100;2023-02-11T14:59:36;44.88;;;25.65;;
33780;SDS011;20097;50.832;19.100;2023-02-11T15:04:41;45.00;;;25.63;;
33780;SDS011;20097;50.832;19.100;2023-02-11T15:09:45;46.38;;;25.45;;
33780;SDS011;20097;50.832;19.100;2023-02-11T15:14:55;48.17;;;27.98;;
33780;SDS011;20097;50.832;19.100;2023-02-11T15:20:02;46.50;;;26.05;;
33780;SDS011;20097;50.832;19.100;2023-02-11T15:25:08;59.92;;;30.60;;
33780;SDS011;20097;50.832;19.100;2023-02-11T15:30:26;52.90;;;27.52;;
33780;SDS011;20097;50.832;19.100;2023-02-11T15:35:36;52.30;;;29.30;;
33780;SDS011;20097;50.832;19.100;2023-02-11T15:40:50;43.53;;;25.05;;
33780;SDS011;20097;50.832;19.100;2023-02-11T15:45:59;47.47;;;25.75;;
33780;SDS011;20097;50.832;19.100;2023-02-11T15:51:07;46.13;;;26.85;;
33780;SDS011;20097;50.832;19.100;2023-02-11T15:56:22;47.10;;;25.25;;
33780;SDS011;20097;50.832;19.100;2023-02-11T16:01:33;48.70;;;25.17;;
33780;SDS011;20097;50.832;19.100;2023-02-11T16:06:42;48.83;;;25.73;;
33780;SDS011;20097;50.832;19.100;2023-02-11T16:11:53;48.58;;;25.55;;
33780;SDS011;20097;50.832;19.100;2023-02-11T16:17:02;41.50;;;24.67;;
33780;SDS011;20097;50.832;19.100;2023-02-11T16:22:10;49.38;;;27.42;;
33780;SDS011;20097;50.832;19.100;2023-02-11T16:27:20;51.50;;;27.15;;
33780;SDS011;20097;50.832;19.100;2023-02-11T16:32:30;47.25;;;26.17;;
33780;SDS011;20097;50.832;19.100;2023-02-11T16:37:36;48.22;;;25.52;;
33780;SDS011;20097;50.832;19.100;2023-02-11T16:42:40;43.53;;;24.73;;
33780;SDS011;20097;50.832;19.100;2023-02-11T16:47:46;43.80;;;25.33;;
33780;SDS011;20097;50.832;19.100;2023-02-11T16:52:50;42.38;;;22.90;;
33780;SDS011;20097;50.832;19.100;2023-02-11T16:57:56;39.63;;;22.65;;
33780;SDS011;20097;50.832;19.100;2023-02-11T17:03:02;40.65;;;21.92;;
33780;SDS011;20097;50.832;19.100;2023-02-11T17:08:10;41.05;;;22.90;;
33780;SDS011;20097;50.832;19.100;2023-02-11T17:18:19;35.10;;;20.80;;
33780;SDS011;20097;50.832;19.100;2023-02-11T17:23:24;38.45;;;22.00;;
33780;SDS011;20097;50.832;19.100;2023-02-11T17:28:28;37.08;;;20.42;;
33780;SDS011;20097;50.832;19.100;2023-02-11T17:33:35;37.65;;;20.10;;
33780;SDS011;20097;50.832;19.100;2023-02-11T17:38:40;31.83;;;20.05;;
33780;SDS011;20097;50.832;19.100;2023-02-11T17:43:44;30.77;;;18.02;;
33780;SDS011;20097;50.832;19.100;2023-02-11T17:48:50;30.45;;;18.85;;
33780;SDS011;20097;50.832;19.100;2023-02-11T17:53:55;33.88;;;18.73;;
33780;SDS011;20097;50.832;19.100;2023-02-11T17:59:02;29.38;;;16.23;;
33780;SDS011;20097;50.832;19.100;2023-02-11T18:04:09;24.73;;;14.10;;
33780;SDS011;20097;50.832;19.100;2023-02-11T18:09:19;27.45;;;16.55;;
33780;SDS011;20097;50.832;19.100;2023-02-11T18:14:23;31.08;;;17.85;;
33780;SDS011;20097;50.832;19.100;2023-02-11T18:19:29;29.70;;;16.88;;
33780;SDS011;20097;50.832;19.100;2023-02-11T18:24:36;28.15;;;17.50;;
33780;SDS011;20097;50.832;19.100;2023-02-11T18:29:41;25.70;;;16.85;;
33780;SDS011;20097;50.832;19.100;2023-02-11T18:34:46;25.42;;;16.70;;
33780;SDS011;20097;50.832;19.100;2023-02-11T18:39:50;48.05;;;34.42;;
33780;SDS011;20097;50.832;19.100;2023-02-11T18:44:55;34.97;;;22.27;;
33780;SDS011;20097;50.832;19.100;2023-02-11T18:50:01;28.40;;;17.20;;
33780;SDS011;20097;50.832;19.100;2023-02-11T18:55:07;32.45;;;20.98;;
33780;SDS011;20097;50.832;19.100;2023-02-11T19:00:12;24.98;;;15.60;;
33780;SDS011;20097;50.832;19.100;2023-02-11T19:05:19;22.98;;;15.23;;
33780;SDS011;20097;50.832;19.100;2023-02-11T19:10:24;24.05;;;16.17;;
33780;SDS011;20097;50.832;19.100;2023-02-11T19:15:29;29.10;;;19.48;;
33780;SDS011;20097;50.832;19.100;2023-02-11T19:20:35;28.42;;;17.33;;
33780;SDS011;20097;50.832;19.100;2023-02-11T19:25:45;24.38;;;16.17;;
33780;SDS011;20097;50.832;19.100;2023-02-11T19:30:50;23.73;;;16.95;;
33780;SDS011;20097;50.832;19.100;2023-02-11T19:36:01;22.42;;;17.52;;
33780;SDS011;20097;50.832;19.100;2023-02-11T19:41:08;30.02;;;20.85;;
33780;SDS011;20097;50.832;19.100;2023-02-11T19:51:19;30.80;;;18.13;;
33780;SDS011;20097;50.832;19.100;2023-02-11T19:56:23;26.83;;;17.70;;
33780;SDS011;20097;50.832;19.100;2023-02-11T20:01:29;20.48;;;13.25;;
33780;SDS011;20097;50.832;19.100;2023-02-11T20:06:35;19.35;;;13.60;;
33780;SDS011;20097;50.832;19.100;2023-02-11T20:11:40;25.40;;;17.15;;
33780;SDS011;20097;50.832;19.100;2023-02-11T20:16:45;25.42;;;14.70;;
33780;SDS011;20097;50.832;19.100;2023-02-11T20:21:53;21.77;;;14.25;;
33780;SDS011;20097;50.832;19.100;2023-02-11T20:26:57;21.10;;;13.98;;
33780;SDS011;20097;50.832;19.100;2023-02-11T20:32:02;20.08;;;12.98;;
33780;SDS011;20097;50.832;19.100;2023-02-11T20:37:09;33.58;;;22.63;;
33780;SDS011;20097;50.832;19.100;2023-02-11T20:42:14;23.20;;;15.73;;
33780;SDS011;20097;50.832;19.100;2023-02-11T20:47:18;30.17;;;19.20;;
33780;SDS011;20097;50.832;19.100;2023-02-11T20:52:25;30.55;;;16.70;;
33780;SDS011;20097;50.832;19.100;2023-02-11T20:57:29;26.25;;;16.02;;
33780;SDS011;20097;50.832;19.100;2023-02-11T21:02:36;28.77;;;15.45;;
33780;SDS011;20097;50.832;19.100;2023-02-11T21:12:47;27.02;;;16.77;;
33780;SDS011;20097;50.832;19.100;2023-02-11T21:17:52;24.95;;;16.85;;
33780;SDS011;20097;50.832;19.100;2023-02-11T21:22:57;25.02;;;15.98;;
33780;SDS011;20097;50.832;19.100;2023-02-11T21:28:02;35.08;;;20.65;;
33780;SDS011;20097;50.832;19.100;2023-02-11T21:33:06;29.55;;;18.83;;
33780;SDS011;20097;50.832;19.100;2023-02-11T21:38:12;22.33;;;14.27;;
33780;SDS011;20097;50.832;19.100;2023-02-11T21:43:17;27.48;;;19.42;;
33780;SDS011;20097;50.832;19.100;2023-02-11T21:48:22;21.27;;;13.68;;
33780;SDS011;20097;50.832;19.100;2023-02-11T21:53:29;23.70;;;15.15;;
33780;SDS011;20097;50.832;19.100;2023-02-11T21:58:33;23.88;;;15.32;;
33780;SDS011;20097;50.832;19.100;2023-02-11T22:03:38;23.33;;;14.75;;
33780;SDS011;20097;50.832;19.100;2023-02-11T22:08:44;18.02;;;11.63;;
33780;SDS011;20097;50.832;19.100;2023-02-11T22:13:51;20.42;;;13.18;;
33780;SDS011;20097;50.832;19.100;2023-02-11T22:18:57;20.83;;;13.77;;
33780;SDS011;20097;50.832;19.100;2023-02-11T22:24:05;22.10;;;14.15;;
33780;SDS011;20097;50.832;19.100;2023-02-11T22:29:09;23.00;;;13.98;;
33780;SDS011;20097;50.832;19.100;2023-02-11T22:34:14;23.65;;;14.43;;
33780;SDS011;20097;50.832;19.100;2023-02-11T22:39:20;23.70;;;14.38;;
33780;SDS011;20097;50.832;19.100;2023-02-11T22:44:24;25.23;;;15.43;;
33780;SDS011;20097;50.832;19.100;2023-02-11T22:49:29;25.13;;;16.50;;
33780;SDS011;20097;50.832;19.100;2023-02-11T22:54:36;24.15;;;15.98;;
33780;SDS011;20097;50.832;19.100;2023-02-11T22:59:40;26.80;;;15.35;;
33780;SDS011;20097;50.832;19.100;2023-02-11T23:04:44;28.85;;;16.80;;
33780;SDS011;20097;50.832;19.100;2023-02-11T23:09:52;25.50;;;16.67;;
33780;SDS011;20097;50.832;19.100;2023-02-11T23:14:57;29.13;;;17.85;;
33780;SDS011;20097;50.832;19.100;2023-02-11T23:20:05;31.48;;;18.83;;
33780;SDS011;20097;50.832;19.100;2023-02-11T23:25:11;34.58;;;20.88;;
33780;SDS011;20097;50.832;19.100;2023-02-11T23:30:16;33.63;;;18.63;;
33780;SDS011;20097;50.832;19.100;2023-02-11T23:35:22;37.10;;;21.17;;
33780;SDS011;20097;50.832;19.100;2023-02-11T23:40:27;36.58;;;22.10;;
33780;SDS011;20097;50.832;19.100;2023-02-11T23:45:32;37.47;;;20.33;;
33780;SDS011;20097;50.832;19.100;2023-02-11T23:50:36;32.97;;;20.00;;
33780;SDS011;20097;50.832;19.100;2023-02-11T23:55:46;34.80;;;20.90;;
